createdAt,value
2022-11-30T00:00:20.171Z,35.08
2022-11-30T00:02:46.892Z,32.00
2022-11-30T00:05:13.440Z,30.63
2022-11-30T00:07:39.894Z,33.72
2022-11-30T00:10:07.739Z,33.33
2022-11-30T00:12:34.157Z,32.30
2022-11-30T00:15:02.053Z,32.95
2022-11-30T00:17:28.443Z,34.03
2022-11-30T00:19:54.858Z,32.40
2022-11-30T00:22:21.531Z,30.33
2022-11-30T00:24:48.119Z,31.38
2022-11-30T00:27:14.669Z,28.98
2022-11-30T00:29:41.051Z,30.35
2022-11-30T00:32:08.778Z,28.70
2022-11-30T00:34:35.506Z,29.83
2022-11-30T00:37:01.941Z,28.05
2022-11-30T00:39:33.890Z,26.85
2022-11-30T00:42:01.889Z,27.98
2022-11-30T00:44:28.291Z,28.80
2022-11-30T00:46:54.707Z,26.92
2022-11-30T00:49:22.531Z,28.67
2022-11-30T00:51:49.209Z,27.42
2022-11-30T00:54:15.613Z,28.05
2022-11-30T00:56:42.042Z,27.63
2022-11-30T00:59:08.499Z,27.30
2022-11-30T01:01:34.932Z,26.70
2022-11-30T01:04:01.836Z,25.30
2022-11-30T01:06:29.695Z,27.88
2022-11-30T01:08:56.284Z,26.15
2022-11-30T01:11:25.315Z,26.70
2022-11-30T01:13:51.876Z,26.95
2022-11-30T01:16:20.938Z,25.80
2022-11-30T01:18:48.611Z,24.88
2022-11-30T01:21:21.665Z,25.25
2022-11-30T01:23:50.253Z,24.88
2022-11-30T01:26:17.622Z,24.77
2022-11-30T01:28:44.590Z,24.05
2022-11-30T01:31:13.559Z,22.95
2022-11-30T01:33:40.850Z,23.20
2022-11-30T01:36:10.398Z,23.98
2022-11-30T01:38:38.804Z,22.52
2022-11-30T01:44:54.398Z,24.40
2022-11-30T01:47:25.311Z,21.55
2022-11-30T01:49:55.655Z,20.45
2022-11-30T01:52:26.127Z,22.38
2022-11-30T01:54:56.450Z,23.80
2022-11-30T01:57:29.619Z,23.63
2022-11-30T02:00:00.872Z,23.90
2022-11-30T02:02:37.521Z,23.92
2022-11-30T02:05:04.789Z,22.00
2022-11-30T02:07:31.300Z,24.05
2022-11-30T02:09:57.802Z,23.95
2022-11-30T02:12:31.618Z,22.75
2022-11-30T02:17:40.539Z,22.80
2022-11-30T02:20:42.075Z,22.25
2022-11-30T02:23:40.971Z,21.52
2022-11-30T02:26:22.664Z,23.55
2022-11-30T02:29:03.791Z,21.48
2022-11-30T02:31:38.286Z,22.67
2022-11-30T02:34:08.477Z,23.45
2022-11-30T02:36:36.105Z,24.20
2022-11-30T02:39:03.854Z,22.42
2022-11-30T02:41:38.201Z,22.70
2022-11-30T02:44:10.172Z,23.33
2022-11-30T02:46:53.856Z,21.85
2022-11-30T02:49:27.015Z,22.35
2022-11-30T02:51:55.143Z,18.00
2022-11-30T02:54:21.587Z,21.33
2022-11-30T02:56:47.997Z,22.17
2022-11-30T02:59:15.858Z,21.48
2022-11-30T03:01:42.371Z,20.73
2022-11-30T03:04:08.954Z,19.45
2022-11-30T03:06:35.402Z,20.98
2022-11-30T03:09:01.992Z,21.50
2022-11-30T03:11:28.409Z,21.92
2022-11-30T03:13:55.194Z,18.77
2022-11-30T03:16:22.978Z,21.65
2022-11-30T03:18:49.415Z,21.45
2022-11-30T03:21:15.957Z,19.52
2022-11-30T03:23:42.383Z,19.25
2022-11-30T03:26:09.204Z,19.10
2022-11-30T03:28:36.423Z,20.85
2022-11-30T03:31:03.142Z,20.40
2022-11-30T03:33:30.979Z,18.85
2022-11-30T03:36:01.498Z,19.45
2022-11-30T03:38:28.324Z,19.88
2022-11-30T03:41:00.754Z,20.50
2022-11-30T03:43:27.384Z,21.45
2022-11-30T03:45:53.927Z,21.45
2022-11-30T03:48:20.515Z,19.90
2022-11-30T03:50:48.383Z,20.80
2022-11-30T03:53:14.849Z,20.77
2022-11-30T03:55:41.252Z,20.73
2022-11-30T03:58:07.670Z,19.83
2022-11-30T04:00:34.125Z,19.60
2022-11-30T04:03:00.646Z,20.67
2022-11-30T04:05:27.080Z,20.30
2022-11-30T04:07:55.065Z,20.58
2022-11-30T04:10:21.549Z,21.10
2022-11-30T04:12:47.966Z,21.48
2022-11-30T04:15:14.492Z,20.73
2022-11-30T04:17:40.921Z,20.67
2022-11-30T04:20:08.167Z,23.13
2022-11-30T04:22:34.589Z,22.80
2022-11-30T04:25:02.631Z,23.17
2022-11-30T04:27:29.381Z,23.58
2022-11-30T04:29:56.038Z,23.80
2022-11-30T04:32:22.697Z,22.08
2022-11-30T04:34:49.449Z,23.52
2022-11-30T04:37:16.059Z,21.50
2022-11-30T04:39:42.518Z,22.33
2022-11-30T04:42:10.274Z,21.35
2022-11-30T04:44:36.695Z,23.38
2022-11-30T04:47:03.261Z,23.35
2022-11-30T04:49:29.703Z,23.63
2022-11-30T04:51:56.121Z,22.77
2022-11-30T04:54:22.533Z,23.58
2022-11-30T04:56:48.964Z,24.55
2022-11-30T04:59:16.703Z,25.40
2022-11-30T05:01:43.202Z,25.98
2022-11-30T05:04:09.779Z,26.23
2022-11-30T05:06:36.297Z,25.08
2022-11-30T05:09:02.767Z,24.73
2022-11-30T05:11:29.189Z,25.75
2022-11-30T05:13:55.582Z,25.63
2022-11-30T05:16:23.407Z,23.67
2022-11-30T05:18:49.858Z,25.80
2022-11-30T05:21:16.300Z,24.83
2022-11-30T05:23:42.685Z,23.80
2022-11-30T05:26:09.160Z,23.13
2022-11-30T05:28:36.257Z,27.33
2022-11-30T05:31:04.302Z,24.83
2022-11-30T05:33:32.496Z,26.35
2022-11-30T05:35:58.998Z,27.90
2022-11-30T05:38:25.444Z,26.88
2022-11-30T05:40:51.915Z,25.17
2022-11-30T05:43:18.324Z,27.08
2022-11-30T05:45:44.765Z,26.00
2022-11-30T05:48:11.195Z,25.52
2022-11-30T05:50:38.937Z,26.45
2022-11-30T05:53:05.347Z,26.17
2022-11-30T05:55:31.930Z,24.98
2022-11-30T05:57:58.348Z,26.17
2022-11-30T06:00:25.294Z,22.25
2022-11-30T06:02:55.771Z,23.48
2022-11-30T06:05:22.229Z,24.10
2022-11-30T06:07:50.098Z,25.13
2022-11-30T06:10:17.031Z,24.70
2022-11-30T06:12:43.481Z,24.45
2022-11-30T06:15:10.994Z,27.27
2022-11-30T06:17:37.597Z,27.13
2022-11-30T06:20:04.520Z,26.15
2022-11-30T06:22:31.099Z,27.85
2022-11-30T06:24:58.930Z,25.50
2022-11-30T06:27:25.378Z,25.60
2022-11-30T06:29:51.798Z,26.05
2022-11-30T06:32:18.296Z,25.30
2022-11-30T06:34:44.865Z,28.75
2022-11-30T06:37:11.409Z,29.35
2022-11-30T06:40:04.882Z,28.05
2022-11-30T06:42:25.623Z,25.35
2022-11-30T06:44:52.105Z,27.15
2022-11-30T06:47:18.543Z,27.27
2022-11-30T06:49:45.108Z,28.67
2022-11-30T06:52:11.513Z,29.15
2022-11-30T06:54:38.008Z,29.85
2022-11-30T06:57:04.401Z,28.63
2022-11-30T06:59:32.181Z,29.63
2022-11-30T07:02:01.685Z,31.27
2022-11-30T07:06:59.743Z,29.10
2022-11-30T07:09:26.286Z,31.35
2022-11-30T07:11:52.727Z,29.55
2022-11-30T07:14:19.292Z,31.10
2022-11-30T07:16:47.165Z,31.25
2022-11-30T07:19:13.597Z,30.40
2022-11-30T07:21:40.017Z,32.47
2022-11-30T07:24:06.945Z,31.92
2022-11-30T07:26:33.480Z,29.75
2022-11-30T07:28:59.943Z,32.90
2022-11-30T07:31:28.090Z,30.33
2022-11-30T07:33:56.970Z,29.95
2022-11-30T07:36:25.581Z,28.23
2022-11-30T07:38:52.444Z,30.20
2022-11-30T07:41:19.111Z,31.10
2022-11-30T07:43:45.552Z,28.73
2022-11-30T07:46:14.076Z,28.10
2022-11-30T07:48:41.371Z,29.13
2022-11-30T07:51:12.763Z,27.83
2022-11-30T07:53:39.302Z,30.50
2022-11-30T07:56:07.655Z,32.63
2022-11-30T07:58:34.301Z,27.38
2022-11-30T08:01:02.232Z,28.75
2022-11-30T08:03:32.377Z,29.65
2022-11-30T08:06:04.266Z,30.63
2022-11-30T08:08:33.774Z,29.38
2022-11-30T08:11:01.415Z,29.63
2022-11-30T08:13:28.381Z,31.65
2022-11-30T08:15:54.981Z,31.17
2022-11-30T08:18:21.451Z,30.90
2022-11-30T08:20:50.170Z,31.48
2022-11-30T08:23:16.726Z,31.45
2022-11-30T08:25:44.462Z,32.25
2022-11-30T08:28:10.865Z,31.95
2022-11-30T08:30:37.334Z,32.60
2022-11-30T08:33:04.012Z,30.55
2022-11-30T08:35:30.420Z,31.90
2022-11-30T08:37:56.908Z,32.50
2022-11-30T08:40:23.358Z,33.80
2022-11-30T08:42:51.205Z,32.42
2022-11-30T08:45:17.833Z,30.55
2022-11-30T08:47:44.313Z,33.72
2022-11-30T08:50:10.949Z,34.70
2022-11-30T08:52:37.397Z,32.65
2022-11-30T08:55:04.412Z,34.25
2022-11-30T08:57:30.819Z,32.15
2022-11-30T08:59:58.563Z,32.88
2022-11-30T09:02:26.528Z,30.77
2022-11-30T09:04:52.973Z,33.10
2022-11-30T09:07:19.724Z,35.97
2022-11-30T09:09:46.249Z,34.20
2022-11-30T09:12:12.722Z,32.70
2022-11-30T09:14:39.157Z,31.73
2022-11-30T09:17:06.910Z,32.65
2022-11-30T09:19:33.501Z,34.83
2022-11-30T09:21:59.961Z,33.58
2022-11-30T09:24:26.435Z,34.58
2022-11-30T09:26:55.511Z,30.70
2022-11-30T09:29:22.282Z,30.92
2022-11-30T09:31:48.733Z,33.65
2022-11-30T09:34:16.499Z,33.55
2022-11-30T09:36:42.922Z,30.40
2022-11-30T09:39:09.584Z,33.53
2022-11-30T09:41:57.755Z,34.92
2022-11-30T09:44:32.580Z,33.45
2022-11-30T09:47:07.363Z,35.15
2022-11-30T09:49:37.469Z,34.53
2022-11-30T09:52:09.662Z,36.22
2022-11-30T09:54:38.909Z,36.78
2022-11-30T09:57:21.096Z,35.42
2022-11-30T09:59:54.455Z,36.10
2022-11-30T10:02:30.243Z,34.08
2022-11-30T10:04:58.682Z,37.97
2022-11-30T10:07:44.183Z,36.80
2022-11-30T10:10:37.473Z,34.88
2022-11-30T10:13:14.051Z,36.53
2022-11-30T10:15:52.936Z,35.67
2022-11-30T10:18:29.973Z,36.47
2022-11-30T10:21:07.518Z,38.40
2022-11-30T10:23:48.802Z,39.10
2022-11-30T10:26:16.421Z,35.80
2022-11-30T10:28:49.879Z,36.60
2022-11-30T10:31:17.690Z,37.35
2022-11-30T10:33:47.165Z,38.22
2022-11-30T10:36:23.309Z,36.92
2022-11-30T10:38:52.613Z,37.08
2022-11-30T10:41:24.852Z,38.80
2022-11-30T10:43:56.482Z,40.60
2022-11-30T10:46:28.051Z,39.47
2022-11-30T10:48:58.345Z,37.13
2022-11-30T10:51:27.592Z,39.15
2022-11-30T10:53:54.115Z,38.97
2022-11-30T10:56:20.498Z,40.55
2022-11-30T10:58:53.503Z,40.17
2022-11-30T11:01:32.682Z,38.60
2022-11-30T11:04:14.029Z,41.33
2022-11-30T11:06:45.024Z,42.03
2022-11-30T11:09:35.058Z,41.38
2022-11-30T11:12:04.198Z,39.67
2022-11-30T11:14:34.988Z,39.22
2022-11-30T11:17:06.367Z,38.00
2022-11-30T11:19:36.149Z,39.75
2022-11-30T11:22:06.773Z,38.83
2022-11-30T11:24:34.087Z,37.53
2022-11-30T11:27:00.851Z,38.20
2022-11-30T11:29:30.868Z,38.60
2022-11-30T11:32:07.245Z,38.22
2022-11-30T11:34:35.403Z,41.35
2022-11-30T11:37:12.730Z,37.95
2022-11-30T11:39:39.401Z,39.42
2022-11-30T11:42:17.746Z,39.45
2022-11-30T11:44:50.593Z,37.97
2022-11-30T11:47:24.426Z,41.08
2022-11-30T11:52:18.695Z,38.78
2022-11-30T11:54:49.241Z,39.97
2022-11-30T11:57:17.443Z,38.83
2022-11-30T11:59:49.510Z,39.78
2022-11-30T12:02:27.989Z,37.67
2022-11-30T12:04:58.991Z,38.22
2022-11-30T12:07:32.054Z,39.47
2022-11-30T12:13:15.239Z,38.45
2022-11-30T12:15:56.999Z,37.90
2022-11-30T12:18:28.541Z,38.42
2022-11-30T12:21:00.617Z,36.95
2022-11-30T12:23:52.419Z,39.15
2022-11-30T12:26:31.633Z,37.00
2022-11-30T12:29:16.149Z,37.28
2022-11-30T12:31:53.591Z,38.33
2022-11-30T12:34:30.473Z,38.30
2022-11-30T12:37:04.275Z,40.10
2022-11-30T12:42:11.511Z,34.83
2022-11-30T12:44:47.442Z,36.95
2022-11-30T12:47:27.356Z,39.65
2022-11-30T12:50:07.604Z,40.05
2022-11-30T12:52:44.033Z,40.22
2022-11-30T12:55:24.759Z,38.47
2022-11-30T12:58:05.764Z,39.60
2022-11-30T13:00:45.352Z,37.88
2022-11-30T13:03:45.563Z,40.65
2022-11-30T13:06:15.961Z,38.85
2022-11-30T13:08:51.026Z,39.95
2022-11-30T13:11:23.379Z,40.65
2022-11-30T13:13:52.503Z,36.97
2022-11-30T13:16:20.466Z,38.97
2022-11-30T13:18:47.756Z,40.47
2022-11-30T13:21:21.487Z,35.60
2022-11-30T13:23:55.027Z,39.20
2022-11-30T13:26:29.195Z,38.55
2022-11-30T13:29:07.299Z,38.60
2022-11-30T13:31:39.534Z,41.35
2022-11-30T13:34:22.950Z,40.85
2022-11-30T13:36:49.586Z,41.55
2022-11-30T13:39:22.845Z,37.70
2022-11-30T13:42:10.019Z,30.92
2022-11-30T13:44:38.555Z,35.92
2022-11-30T13:47:15.490Z,37.28
2022-11-30T13:49:42.352Z,36.38
2022-11-30T13:52:22.778Z,35.33
2022-11-30T13:54:52.028Z,32.00
2022-11-30T13:57:59.092Z,28.42
2022-11-30T14:01:19.716Z,26.70
2022-11-30T14:04:36.741Z,30.20
2022-11-30T14:07:03.296Z,31.40
2022-11-30T14:09:56.404Z,32.28
2022-11-30T14:12:46.676Z,30.15
2022-11-30T14:15:49.699Z,27.30
2022-11-30T14:18:22.761Z,28.30
2022-11-30T14:20:54.106Z,27.30
2022-11-30T14:23:26.078Z,26.40
2022-11-30T14:25:55.711Z,27.15
2022-11-30T14:28:25.296Z,26.58
2022-11-30T14:30:54.792Z,25.17
2022-11-30T14:33:27.197Z,25.67
2022-11-30T14:35:56.457Z,26.60
2022-11-30T14:38:25.478Z,24.80
2022-11-30T14:40:53.704Z,24.13
2022-11-30T14:43:20.316Z,23.17
2022-11-30T14:46:01.598Z,23.40
2022-11-30T14:48:32.777Z,25.60
2022-11-30T14:51:01.900Z,25.63
2022-11-30T14:53:35.887Z,24.52
2022-11-30T14:56:08.977Z,24.85
2022-11-30T14:58:43.172Z,24.95
2022-11-30T15:01:17.113Z,29.23
2022-11-30T15:03:45.991Z,25.05
2022-11-30T15:06:15.703Z,26.40
2022-11-30T15:08:45.891Z,24.80
2022-11-30T15:11:14.562Z,26.48
2022-11-30T15:13:43.599Z,26.70
2022-11-30T15:16:18.642Z,27.98
2022-11-30T15:18:46.876Z,29.60
2022-11-30T15:21:16.874Z,31.88
2022-11-30T15:23:46.720Z,32.33
2022-11-30T15:26:20.567Z,36.03
2022-11-30T15:28:54.583Z,35.13
2022-11-30T15:31:21.372Z,35.38
2022-11-30T15:33:50.564Z,34.90
2022-11-30T15:36:32.427Z,34.17
2022-11-30T15:39:02.341Z,33.78
2022-11-30T15:41:28.820Z,34.10
2022-11-30T15:43:56.930Z,34.03
2022-11-30T15:46:35.072Z,32.05
2022-11-30T15:49:15.639Z,32.38
2022-11-30T15:51:44.008Z,33.47
2022-11-30T15:54:10.634Z,33.08
2022-11-30T15:56:37.101Z,30.58
2022-11-30T15:59:06.447Z,31.67
2022-11-30T16:01:51.252Z,31.15
2022-11-30T16:04:19.068Z,30.50
2022-11-30T16:06:47.503Z,30.48
2022-11-30T16:09:19.510Z,32.17
2022-11-30T16:11:46.936Z,31.92
2022-11-30T16:14:15.363Z,32.30
2022-11-30T16:16:42.109Z,32.30
2022-11-30T16:19:09.243Z,31.80
2022-11-30T16:21:37.788Z,31.15
2022-11-30T16:24:04.942Z,31.60
2022-11-30T16:29:17.817Z,31.00
2022-11-30T16:31:44.247Z,30.27
2022-11-30T16:34:11.349Z,29.60
2022-11-30T16:36:39.290Z,28.65
2022-11-30T16:39:06.020Z,30.05
2022-11-30T16:41:34.614Z,27.58
2022-11-30T16:44:01.061Z,27.08
2022-11-30T16:46:28.868Z,28.65
2022-11-30T16:48:55.928Z,26.45
2022-11-30T16:51:26.223Z,27.15
2022-11-30T16:53:54.718Z,27.00
2022-11-30T16:56:21.389Z,26.35
2022-11-30T16:58:47.997Z,27.17
2022-11-30T17:01:18.850Z,28.48
2022-11-30T17:03:48.443Z,27.13
2022-11-30T17:06:17.919Z,28.15
2022-11-30T17:08:44.480Z,27.80
2022-11-30T17:11:16.988Z,27.23
2022-11-30T17:13:43.421Z,26.92
2022-11-30T17:16:10.323Z,28.05
2022-11-30T17:18:36.758Z,28.30
2022-11-30T17:21:03.330Z,29.63
2022-11-30T17:23:29.742Z,28.80
2022-11-30T17:25:56.511Z,27.20
2022-11-30T17:28:24.535Z,28.45
2022-11-30T17:30:51.083Z,26.35
2022-11-30T17:33:17.531Z,29.65
2022-11-30T17:35:43.975Z,28.45
2022-11-30T17:38:10.423Z,32.00
2022-11-30T17:40:39.205Z,28.98
2022-11-30T17:43:05.595Z,29.30
2022-11-30T17:45:33.462Z,27.75
2022-11-30T17:47:59.942Z,28.85
2022-11-30T17:50:26.467Z,28.70
2022-11-30T17:52:52.865Z,28.88
2022-11-30T17:55:19.258Z,28.75
2022-11-30T17:57:45.653Z,31.35
2022-11-30T18:00:12.936Z,29.83
2022-11-30T18:02:40.741Z,30.00
2022-11-30T18:05:07.950Z,31.45
2022-11-30T18:07:34.538Z,35.40
2022-11-30T18:10:01.016Z,36.35
2022-11-30T18:12:27.490Z,38.25
2022-11-30T18:14:53.973Z,37.50
2022-11-30T18:17:20.400Z,39.75
2022-11-30T18:19:48.219Z,38.58
2022-11-30T18:22:14.624Z,40.47
2022-11-30T18:24:41.052Z,42.20
2022-11-30T18:27:07.458Z,40.92
2022-11-30T18:29:33.902Z,43.88
2022-11-30T18:32:00.530Z,42.78
2022-11-30T18:34:27.139Z,41.65
2022-11-30T18:36:54.995Z,41.75
2022-11-30T18:39:21.447Z,40.42
2022-11-30T18:41:47.936Z,45.03
2022-11-30T18:44:14.427Z,43.17
2022-11-30T18:46:41.004Z,44.10
2022-11-30T18:49:07.542Z,45.05
2022-11-30T18:51:35.205Z,44.30
2022-11-30T18:54:05.103Z,45.83
2022-11-30T18:56:33.125Z,45.55
2022-11-30T18:59:01.559Z,45.28
2022-11-30T19:01:28.655Z,49.13
2022-11-30T19:03:56.973Z,46.67
2022-11-30T19:06:24.587Z,44.20
2022-11-30T19:08:51.297Z,45.85
2022-11-30T19:11:19.066Z,44.60
2022-11-30T19:13:45.711Z,44.10
2022-11-30T19:16:14.583Z,45.70
2022-11-30T19:18:41.128Z,45.45
2022-11-30T19:21:08.866Z,45.55
2022-11-30T19:23:35.863Z,45.60
2022-11-30T19:26:02.311Z,48.90
2022-11-30T19:28:31.512Z,49.22
2022-11-30T19:30:58.573Z,48.67
2022-11-30T19:33:25.471Z,43.40
2022-11-30T19:35:51.972Z,47.80
2022-11-30T19:38:18.500Z,47.25
2022-11-30T19:40:44.911Z,46.67
2022-11-30T19:43:11.368Z,49.03
2022-11-30T19:45:39.364Z,44.42
2022-11-30T19:48:05.926Z,48.60
2022-11-30T19:50:32.498Z,42.25
2022-11-30T19:52:58.939Z,41.85
2022-11-30T19:55:25.537Z,41.17
2022-11-30T19:57:51.970Z,43.33
2022-11-30T20:00:19.625Z,39.80
2022-11-30T20:02:47.427Z,39.25
2022-11-30T20:05:13.921Z,38.17
2022-11-30T20:07:40.392Z,38.83
2022-11-30T20:10:07.827Z,42.72
2022-11-30T20:12:34.247Z,41.28
2022-11-30T20:15:00.683Z,42.58
2022-11-30T20:17:27.097Z,41.72
2022-11-30T20:19:54.845Z,44.22
2022-11-30T20:22:21.238Z,41.83
2022-11-30T20:24:47.849Z,42.55
2022-11-30T20:27:14.618Z,40.75
2022-11-30T20:29:41.030Z,44.08
2022-11-30T20:32:07.456Z,41.67
2022-11-30T20:34:38.617Z,41.33
2022-11-30T20:37:08.783Z,43.20
2022-11-30T20:39:35.231Z,40.67
2022-11-30T20:42:01.608Z,44.30
2022-11-30T20:44:28.034Z,43.83
2022-11-30T20:46:54.477Z,43.95
2022-11-30T20:49:20.939Z,45.65
2022-11-30T20:51:48.012Z,47.65
2022-11-30T20:54:16.447Z,44.95
2022-11-30T20:56:43.183Z,47.03
2022-11-30T20:59:15.281Z,45.15
2022-11-30T21:01:43.986Z,45.10
2022-11-30T21:04:11.090Z,44.45
2022-11-30T21:06:37.501Z,45.03
2022-11-30T21:09:04.695Z,45.78
2022-11-30T21:11:32.465Z,46.83
2022-11-30T21:13:59.144Z,46.35
2022-11-30T21:16:28.603Z,47.75
2022-11-30T21:18:56.739Z,45.88
2022-11-30T21:21:27.169Z,44.05
2022-11-30T21:23:53.832Z,43.53
2022-11-30T21:26:21.993Z,43.10
2022-11-30T21:28:51.493Z,46.63
2022-11-30T21:31:17.953Z,44.13
2022-11-30T21:33:50.956Z,43.22
2022-11-30T21:36:19.407Z,43.15
2022-11-30T21:38:45.825Z,43.40
2022-11-30T21:41:14.136Z,42.10
2022-11-30T21:43:41.425Z,44.67
2022-11-30T21:46:12.547Z,41.70
2022-11-30T21:48:41.089Z,42.17
2022-11-30T21:51:09.770Z,43.03
2022-11-30T21:53:38.905Z,41.92
2022-11-30T21:56:07.707Z,40.55
2022-11-30T21:58:34.509Z,41.00
2022-11-30T22:01:02.605Z,39.55
2022-11-30T22:03:30.530Z,40.90
2022-11-30T22:05:58.401Z,41.33
2022-11-30T22:08:24.845Z,37.67
2022-11-30T22:10:51.270Z,39.22
2022-11-30T22:13:17.671Z,39.45
2022-11-30T22:15:44.111Z,39.00
2022-11-30T22:18:10.630Z,39.47
2022-11-30T22:20:38.395Z,37.45
2022-11-30T22:23:04.792Z,37.13
2022-11-30T22:25:31.229Z,38.83
2022-11-30T22:27:57.594Z,38.15
2022-11-30T22:30:24.006Z,38.35
2022-11-30T22:32:50.439Z,37.95
2022-11-30T22:35:16.833Z,38.33
2022-11-30T22:37:44.603Z,36.63
2022-11-30T22:40:12.226Z,38.15
2022-11-30T22:42:38.627Z,37.75
2022-11-30T22:45:06.686Z,35.53
2022-11-30T22:47:33.127Z,35.70
2022-11-30T22:49:59.563Z,35.60
2022-11-30T22:52:48.342Z,37.70
2022-11-30T22:55:13.986Z,37.10
2022-11-30T22:57:40.522Z,36.80
2022-11-30T23:00:08.491Z,36.20
2022-11-30T23:02:35.034Z,35.65
2022-11-30T23:05:01.510Z,37.00
2022-11-30T23:07:32.074Z,38.20
2022-11-30T23:09:58.794Z,36.92
2022-11-30T23:12:51.274Z,35.42
2022-11-30T23:15:13.311Z,35.90
2022-11-30T23:17:39.745Z,38.97
2022-11-30T23:20:07.418Z,37.03
2022-11-30T23:22:35.297Z,37.20
2022-11-30T23:25:01.758Z,36.13
2022-11-30T23:27:29.500Z,37.17
2022-11-30T23:29:56.110Z,35.95
2022-11-30T23:32:22.639Z,36.55
2022-11-30T23:34:50.757Z,36.33
2022-11-30T23:37:17.446Z,36.97
2022-11-30T23:39:43.843Z,36.10
2022-11-30T23:42:10.244Z,36.22
2022-11-30T23:44:38.017Z,37.05
2022-11-30T23:47:04.653Z,36.60
2022-11-30T23:49:31.223Z,38.10
2022-11-30T23:51:57.664Z,37.08
2022-11-30T23:54:24.166Z,38.50
2022-11-30T23:56:50.570Z,37.78
2022-11-30T23:59:17.044Z,34.92
